Time;durP1;ratioP1;P1;durP2;ratioP2;P2;SDS_P1;SDS_P2;PMS_P1;PMS_P2;Temp;Humidity;BMP_temperature;BMP_pressure;BME280_temperature;BME280_humidity;BME280_pressure;Samples;Min_cycle;Max_cycle;Signal;HPM_P1;HPM_P2
2022/12/12 00:01:50;;;;;;;29.95;18.10;;;;;;;;;;10124210;28;20550;-68
2022/12/12 00:06:46;;;;;;;28.05;16.25;;;;;;;;;;10122345;28;20128;-68
2022/12/12 00:11:42;;;;;;;31.42;15.90;;;;;;;;;;10117623;28;20126;-68
2022/12/12 00:16:38;;;;;;;26.70;15.45;;;;;;;;;;10116698;28;20049;-67
2022/12/12 00:21:35;;;;;;;25.73;16.55;;;;;;;;;;10122989;28;20072;-67
2022/12/12 00:26:33;;;;;;;27.65;16.13;;;;;;;;;;10118621;28;20530;-66
2022/12/12 00:31:29;;;;;;;31.52;16.67;;;;;;;;;;10122561;28;20419;-68
2022/12/12 00:36:27;;;;;;;29.48;16.55;;;;;;;;;;10109355;28;20050;-68
2022/12/12 00:41:24;;;;;;;29.48;16.38;;;;;;;;;;10124196;28;20046;-69
2022/12/12 00:46:21;;;;;;;29.20;16.35;;;;;;;;;;10129647;28;20597;-68
2022/12/12 00:51:18;;;;;;;29.98;16.60;;;;;;;;;;10118307;28;20619;-68
2022/12/12 00:56:15;;;;;;;27.52;15.77;;;;;;;;;;10122454;28;20165;-68
2022/12/12 01:01:13;;;;;;;29.50;16.80;;;;;;;;;;10123262;28;20525;-68
2022/12/12 01:06:10;;;;;;;29.08;17.30;;;;;;;;;;10115008;28;20051;-67
2022/12/12 01:11:07;;;;;;;27.88;17.15;;;;;;;;;;10123163;28;20057;-68
2022/12/12 01:16:04;;;;;;;35.35;19.35;;;;;;;;;;10113094;28;20070;-68
2022/12/12 01:21:01;;;;;;;33.35;18.60;;;;;;;;;;10112343;28;20533;-67
2022/12/12 01:25:58;;;;;;;28.42;17.45;;;;;;;;;;10127393;28;20057;-66
2022/12/12 01:30:55;;;;;;;32.22;18.75;;;;;;;;;;10125014;28;20053;-67
2022/12/12 01:35:52;;;;;;;36.10;20.08;;;;;;;;;;10122954;28;20054;-67
2022/12/12 01:40:49;;;;;;;32.97;19.90;;;;;;;;;;10128061;28;20632;-67
2022/12/12 01:45:51;;;;;;;31.38;19.30;;;;;;;;;;10128283;28;20054;-67
2022/12/12 01:50:48;;;;;;;35.20;20.35;;;;;;;;;;10126306;28;20043;-67
2022/12/12 01:55:45;;;;;;;32.92;20.42;;;;;;;;;;10113112;28;20062;-68
2022/12/12 02:00:42;;;;;;;33.20;20.63;;;;;;;;;;10120803;28;20057;-67
2022/12/12 02:05:40;;;;;;;35.55;21.13;;;;;;;;;;11132626;23;20158;-70
2022/12/12 02:10:37;;;;;;;35.38;21.48;;;;;;;;;;10083646;28;20611;-68
2022/12/12 02:15:39;;;;;;;35.72;21.83;;;;;;;;;;10081942;28;20045;-69
2022/12/12 02:20:41;;;;;;;33.03;21.30;;;;;;;;;;10108945;28;20062;-70
2022/12/12 02:25:54;;;;;;;39.22;22.42;;;;;;;;;;10098127;28;20055;-66
2022/12/12 02:31:11;;;;;;;35.55;22.20;;;;;;;;;;10097966;28;20425;-66
2022/12/12 02:36:13;;;;;;;37.35;23.35;;;;;;;;;;10090555;28;20424;-67
2022/12/12 02:41:34;;;;;;;38.15;23.98;;;;;;;;;;10092155;28;20039;-67
2022/12/12 02:46:40;;;;;;;37.70;24.30;;;;;;;;;;10094646;28;20046;-67
2022/12/12 02:51:37;;;;;;;42.22;24.13;;;;;;;;;;10098068;28;20089;-67
2022/12/12 02:56:42;;;;;;;36.38;23.73;;;;;;;;;;10088843;28;20049;-67
2022/12/12 03:01:47;;;;;;;40.90;24.30;;;;;;;;;;10094535;28;20051;-67
2022/12/12 03:12:34;;;;;;;36.55;22.95;;;;;;;;;;10095942;28;20093;-68
2022/12/12 03:17:37;;;;;;;39.10;24.15;;;;;;;;;;10089027;28;20409;-67
2022/12/12 03:22:33;;;;;;;;;;;;;;;;;;10099587;28;20095;-67
2022/12/12 03:27:38;;;;;;;41.03;24.48;;;;;;;;;;10098773;28;20295;-68
2022/12/12 03:32:41;;;;;;;39.63;24.15;;;;;;;;;;10096393;28;20642;-70
2022/12/12 03:37:40;;;;;;;38.00;25.40;;;;;;;;;;10092261;28;20062;-69
2022/12/12 03:42:47;;;;;;;40.58;25.25;;;;;;;;;;10099659;28;20049;-69
2022/12/12 03:47:53;;;;;;;42.90;25.85;;;;;;;;;;10092166;28;20047;-69
2022/12/12 03:52:58;;;;;;;40.33;24.50;;;;;;;;;;10100453;28;20051;-69
2022/12/12 03:58:09;;;;;;;39.72;25.42;;;;;;;;;;10089551;28;20051;-69
2022/12/12 04:03:10;;;;;;;40.42;26.27;;;;;;;;;;10102715;28;20098;-70
2022/12/12 04:08:09;;;;;;;47.25;27.05;;;;;;;;;;10092674;28;20057;-69
2022/12/12 04:13:12;;;;;;;46.75;27.55;;;;;;;;;;10092104;28;20071;-67
2022/12/12 04:18:11;;;;;;;44.25;26.83;;;;;;;;;;10100397;28;20043;-69
2022/12/12 04:23:14;;;;;;;38.80;26.33;;;;;;;;;;10096489;28;20042;-68
2022/12/12 04:28:11;;;;;;;46.08;26.70;;;;;;;;;;10081772;28;20141;-69
2022/12/12 04:33:10;;;;;;;40.22;28.00;;;;;;;;;;10091966;28;20046;-70
2022/12/12 04:38:12;;;;;;;42.45;29.30;;;;;;;;;;10089613;28;20142;-71
2022/12/12 04:43:08;;;;;;;42.47;27.97;;;;;;;;;;10085646;28;20055;-70
2022/12/12 04:48:05;;;;;;;42.92;27.85;;;;;;;;;;10103254;28;20043;-71
2022/12/12 04:53:06;;;;;;;42.08;27.95;;;;;;;;;;10097131;28;20154;-71
2022/12/12 04:58:04;;;;;;;44.35;29.70;;;;;;;;;;10087631;28;20415;-70
2022/12/12 05:03:07;;;;;;;45.60;29.75;;;;;;;;;;10081448;28;20534;-72
2022/12/12 05:08:08;;;;;;;43.40;29.77;;;;;;;;;;10084321;28;20618;-71
2022/12/12 05:13:04;;;;;;;45.92;30.50;;;;;;;;;;10091958;28;20067;-71
2022/12/12 05:18:04;;;;;;;43.63;30.50;;;;;;;;;;10099292;28;20050;-71
2022/12/12 05:23:00;;;;;;;47.03;31.42;;;;;;;;;;10105593;28;20047;-71
2022/12/12 05:27:56;;;;;;;44.40;29.33;;;;;;;;;;10104863;28;20047;-71
2022/12/12 05:32:53;;;;;;;45.28;31.00;;;;;;;;;;10102139;28;20050;-71
2022/12/12 05:37:49;;;;;;;48.67;32.55;;;;;;;;;;10110244;28;20061;-71
2022/12/12 05:42:47;;;;;;;44.20;33.28;;;;;;;;;;10112839;28;20058;-71
2022/12/12 05:47:43;;;;;;;47.53;34.53;;;;;;;;;;10096415;28;20051;-71
2022/12/12 05:52:40;;;;;;;47.97;32.83;;;;;;;;;;10106281;28;20047;-71
2022/12/12 05:57:36;;;;;;;51.15;34.42;;;;;;;;;;10100586;28;20057;-71
2022/12/12 06:02:32;;;;;;;46.40;34.78;;;;;;;;;;10099487;28;20046;-71
2022/12/12 06:07:29;;;;;;;51.33;35.22;;;;;;;;;;10091503;28;20133;-71
2022/12/12 06:12:25;;;;;;;52.10;36.88;;;;;;;;;;10126607;28;20428;-71
2022/12/12 06:17:21;;;;;;;52.67;35.25;;;;;;;;;;10111645;28;20496;-71
2022/12/12 06:22:17;;;;;;;58.38;36.33;;;;;;;;;;10096484;28;20393;-71
2022/12/12 06:27:13;;;;;;;49.08;35.08;;;;;;;;;;10103503;28;20050;-71
2022/12/12 06:32:10;;;;;;;52.50;36.95;;;;;;;;;;10094300;28;20055;-71
2022/12/12 06:37:06;;;;;;;53.42;36.75;;;;;;;;;;10100913;28;20137;-71
2022/12/12 06:42:09;;;;;;;57.30;38.95;;;;;;;;;;10102969;28;20043;-71
2022/12/12 06:47:05;;;;;;;60.35;38.50;;;;;;;;;;10097376;28;20047;-71
2022/12/12 06:52:01;;;;;;;59.03;37.70;;;;;;;;;;10106115;28;20135;-71
2022/12/12 06:56:58;;;;;;;51.15;36.30;;;;;;;;;;10106864;28;20039;-71
2022/12/12 07:01:55;;;;;;;58.05;37.15;;;;;;;;;;10099115;28;20574;-69
2022/12/12 07:06:51;;;;;;;53.83;37.63;;;;;;;;;;10104028;28;20094;-71
2022/12/12 07:11:48;;;;;;;50.83;35.50;;;;;;;;;;10102888;28;20053;-69
2022/12/12 07:16:44;;;;;;;48.90;36.00;;;;;;;;;;10103155;28;20070;-70
2022/12/12 07:21:40;;;;;;;55.25;38.20;;;;;;;;;;10109962;28;20062;-69
2022/12/12 07:26:36;;;;;;;51.80;36.95;;;;;;;;;;10098060;28;20134;-69
2022/12/12 07:31:33;;;;;;;53.00;37.38;;;;;;;;;;10104715;28;20038;-69
2022/12/12 07:36:29;;;;;;;50.47;36.15;;;;;;;;;;10101212;28;20043;-69
2022/12/12 07:41:25;;;;;;;53.30;34.63;;;;;;;;;;10099672;28;20057;-69
2022/12/12 07:46:23;;;;;;;43.88;32.67;;;;;;;;;;10101573;28;20419;-69
2022/12/12 07:51:20;;;;;;;50.60;34.97;;;;;;;;;;10098974;28;20090;-69
2022/12/12 07:56:17;;;;;;;52.67;34.92;;;;;;;;;;10098277;28;20070;-69
2022/12/12 08:01:17;;;;;;;51.45;34.53;;;;;;;;;;10102646;28;20070;-69
2022/12/12 08:06:15;;;;;;;50.22;34.33;;;;;;;;;;10096415;28;20049;-69
2022/12/12 08:11:12;;;;;;;53.53;34.72;;;;;;;;;;10109214;28;20102;-69
2022/12/12 08:16:13;;;;;;;49.08;33.42;;;;;;;;;;10088876;28;20043;-69
2022/12/12 08:21:10;;;;;;;54.20;35.97;;;;;;;;;;10105821;28;20568;-69
2022/12/12 08:26:11;;;;;;;51.10;34.97;;;;;;;;;;10102948;28;20129;-69
2022/12/12 08:31:07;;;;;;;49.97;35.25;;;;;;;;;;10103750;28;20127;-69
2022/12/12 08:36:11;;;;;;;53.20;36.80;;;;;;;;;;10099706;28;20106;-69
2022/12/12 08:41:08;;;;;;;48.47;35.28;;;;;;;;;;10104250;28;20078;-69
2022/12/12 08:46:05;;;;;;;57.45;37.78;;;;;;;;;;10101804;28;20134;-69
2022/12/12 08:51:05;;;;;;;54.28;37.85;;;;;;;;;;10100241;28;20053;-69
2022/12/12 08:56:01;;;;;;;54.42;37.35;;;;;;;;;;10098189;28;20646;-69
2022/12/12 09:00:57;;;;;;;46.58;34.05;;;;;;;;;;10105495;28;20049;-69
2022/12/12 09:05:53;;;;;;;48.60;34.92;;;;;;;;;;10100639;28;21882;-69
2022/12/12 09:10:50;;;;;;;54.17;36.13;;;;;;;;;;10104634;28;20167;-69
2022/12/12 09:15:49;;;;;;;46.00;34.65;;;;;;;;;;10109241;28;20039;-69
2022/12/12 09:20:49;;;;;;;48.60;35.17;;;;;;;;;;10102319;28;20396;-69
2022/12/12 09:25:46;;;;;;;47.08;35.38;;;;;;;;;;10095906;28;20039;-69
2022/12/12 09:30:43;;;;;;;48.17;35.28;;;;;;;;;;10098232;28;20540;-69
2022/12/12 09:35:39;;;;;;;52.50;36.55;;;;;;;;;;10085829;28;20053;-69
2022/12/12 09:40:46;;;;;;;51.90;34.60;;;;;;;;;;10097088;28;20071;-69
2022/12/12 09:45:42;;;;;;;42.60;31.75;;;;;;;;;;10096038;28;20129;-68
2022/12/12 09:50:40;;;;;;;49.05;32.15;;;;;;;;;;10105237;28;20657;-69
2022/12/12 09:55:51;;;;;;;48.67;30.27;;;;;;;;;;10104358;28;20051;-69
2022/12/12 10:01:10;;;;;;;42.88;30.30;;;;;;;;;;10104607;28;20145;-69
2022/12/12 10:06:08;;;;;;;46.13;28.40;;;;;;;;;;10110183;28;20043;-69
2022/12/12 10:16:43;;;;;;;43.17;28.98;;;;;;;;;;10106969;28;20047;-69
2022/12/12 10:21:39;;;;;;;43.80;29.80;;;;;;;;;;10109395;28;20085;-69
2022/12/12 10:26:36;;;;;;;43.28;29.40;;;;;;;;;;10103331;28;20054;-69
2022/12/12 10:31:41;;;;;;;44.90;30.52;;;;;;;;;;10103547;28;20047;-69
2022/12/12 10:36:58;;;;;;;41.75;28.45;;;;;;;;;;10106611;28;20722;-69
2022/12/12 10:42:01;;;;;;;44.58;29.10;;;;;;;;;;10105840;28;20047;-69
2022/12/12 10:46:58;;;;;;;38.25;27.73;;;;;;;;;;10102580;28;20043;-69
2022/12/12 10:51:55;;;;;;;38.65;28.02;;;;;;;;;;10095773;28;20051;-69
2022/12/12 10:57:09;;;;;;;37.42;26.50;;;;;;;;;;10105747;28;20070;-69
2022/12/12 11:02:21;;;;;;;39.65;28.50;;;;;;;;;;10115762;28;20210;-69
2022/12/12 11:07:18;;;;;;;43.97;30.77;;;;;;;;;;10098711;28;20044;-69
2022/12/12 11:12:15;;;;;;;43.58;31.30;;;;;;;;;;10098370;28;20476;-69
2022/12/12 11:17:21;;;;;;;47.10;33.70;;;;;;;;;;10087271;28;20050;-69
2022/12/12 11:22:18;;;;;;;51.25;31.98;;;;;;;;;;10103684;28;20066;-69
2022/12/12 11:27:34;;;;;;;42.70;30.98;;;;;;;;;;10104567;28;20038;-69
2022/12/12 11:32:41;;;;;;;41.88;30.58;;;;;;;;;;10096364;28;20437;-69
2022/12/12 11:37:44;;;;;;;37.10;27.92;;;;;;;;;;10105087;28;20438;-69
2022/12/12 11:42:40;;;;;;;40.10;27.35;;;;;;;;;;10106299;28;20053;-69
2022/12/12 11:47:41;;;;;;;42.88;29.27;;;;;;;;;;10095230;28;20055;-69
2022/12/12 11:52:37;;;;;;;42.28;26.77;;;;;;;;;;10102749;28;20130;-69
2022/12/12 11:57:36;;;;;;;38.40;26.48;;;;;;;;;;10090971;28;20055;-69
2022/12/12 12:03:08;;;;;;;37.85;25.77;;;;;;;;;;10106847;28;20066;-69
2022/12/12 12:08:23;;;;;;;40.78;26.15;;;;;;;;;;10052859;28;20047;-69
2022/12/12 12:13:38;;;;;;;37.83;23.98;;;;;;;;;;10109563;28;20093;-69
2022/12/12 12:18:34;;;;;;;34.42;22.90;;;;;;;;;;10094425;28;20053;-69
2022/12/12 12:23:41;;;;;;;35.45;21.27;;;;;;;;;;10119723;28;20057;-70
2022/12/12 12:29:00;;;;;;;32.63;21.02;;;;;;;;;;10096811;28;20049;-69
2022/12/12 12:34:14;;;;;;;42.92;23.20;;;;;;;;;;10092379;28;20129;-69
2022/12/12 12:39:20;;;;;;;35.95;21.67;;;;;;;;;;10094814;28;20487;-69
2022/12/12 12:44:19;;;;;;;36.90;21.30;;;;;;;;;;10093804;28;20042;-69
2022/12/12 12:49:35;;;;;;;32.13;19.98;;;;;;;;;;10101207;28;20118;-69
2022/12/12 12:54:35;;;;;;;35.25;22.33;;;;;;;;;;10085214;28;20500;-69
2022/12/12 12:59:34;;;;;;;38.47;21.02;;;;;;;;;;10104099;28;20445;-70
2022/12/12 13:04:30;;;;;;;35.85;21.10;;;;;;;;;;10093402;28;20047;-69
2022/12/12 13:09:45;;;;;;;34.78;20.38;;;;;;;;;;10091796;28;20045;-69
2022/12/12 13:14:48;;;;;;;30.15;18.00;;;;;;;;;;10092546;28;20053;-69
2022/12/12 13:19:47;;;;;;;30.63;18.38;;;;;;;;;;10102375;28;20127;-69
2022/12/12 13:24:48;;;;;;;32.50;19.63;;;;;;;;;;10097466;28;20134;-69
2022/12/12 13:29:47;;;;;;;33.90;19.42;;;;;;;;;;10095173;28;20048;-69
2022/12/12 13:34:45;;;;;;;34.50;20.10;;;;;;;;;;10094867;28;20047;-69
2022/12/12 13:39:42;;;;;;;33.75;20.02;;;;;;;;;;10095978;28;20570;-70
2022/12/12 13:44:38;;;;;;;36.10;19.95;;;;;;;;;;10105879;28;20054;-69
2022/12/12 13:49:44;;;;;;;35.78;19.92;;;;;;;;;;10099649;28;20090;-69
2022/12/12 13:54:41;;;;;;;32.58;19.35;;;;;;;;;;10102580;28;20086;-69
2022/12/12 13:59:53;;;;;;;32.70;20.48;;;;;;;;;;10105228;28;20051;-70
2022/12/12 14:05:09;;;;;;;34.50;20.35;;;;;;;;;;10095073;28;20042;-69
2022/12/12 14:10:23;;;;;;;34.40;20.17;;;;;;;;;;10099772;28;20062;-68
2022/12/12 14:15:19;;;;;;;38.53;22.35;;;;;;;;;;10094842;28;20085;-69
2022/12/12 14:20:24;;;;;;;39.13;22.92;;;;;;;;;;10105687;28;20511;-69
2022/12/12 14:25:31;;;;;;;39.75;24.33;;;;;;;;;;10106347;28;20134;-69
2022/12/12 14:30:41;;;;;;;39.60;23.13;;;;;;;;;;10106438;28;20401;-69
2022/12/12 14:35:38;;;;;;;38.28;25.20;;;;;;;;;;10100055;28;20047;-69
2022/12/12 14:40:39;;;;;;;41.60;25.08;;;;;;;;;;10100648;28;20047;-69
2022/12/12 14:45:37;;;;;;;37.45;24.13;;;;;;;;;;10098602;28;20141;-69
2022/12/12 14:50:33;;;;;;;45.13;25.95;;;;;;;;;;10106790;28;20046;-69
2022/12/12 14:55:30;;;;;;;44.70;27.30;;;;;;;;;;10096950;28;20437;-69
2022/12/12 15:00:26;;;;;;;45.67;26.65;;;;;;;;;;10095208;28;20194;-69
2022/12/12 15:05:23;;;;;;;46.08;26.45;;;;;;;;;;10103418;28;20046;-68
2022/12/12 15:10:29;;;;;;;44.78;27.77;;;;;;;;;;10103780;28;20065;-71
2022/12/12 15:15:26;;;;;;;49.33;29.77;;;;;;;;;;10099259;28;20047;-71
2022/12/12 15:20:32;;;;;;;48.78;30.30;;;;;;;;;;10098397;28;20062;-70
2022/12/12 15:25:32;;;;;;;49.72;30.55;;;;;;;;;;10095398;28;20050;-71
2022/12/12 15:30:29;;;;;;;43.20;29.27;;;;;;;;;;10110308;28;20046;-71
2022/12/12 15:35:25;;;;;;;50.38;30.77;;;;;;;;;;10094560;28;20130;-69
2022/12/12 15:40:25;;;;;;;45.97;31.65;;;;;;;;;;10098078;28;20130;-71
2022/12/12 15:45:23;;;;;;;47.83;31.08;;;;;;;;;;10100768;28;20051;-71
2022/12/12 15:50:21;;;;;;;49.58;32.15;;;;;;;;;;10098415;28;20046;-71
2022/12/12 15:55:21;;;;;;;47.40;31.88;;;;;;;;;;10101691;28;20112;-71
2022/12/12 16:00:29;;;;;;;48.13;33.05;;;;;;;;;;10091815;28;20521;-71
2022/12/12 16:05:30;;;;;;;49.95;31.67;;;;;;;;;;10088134;28;21544;-71
2022/12/12 16:10:26;;;;;;;46.95;31.80;;;;;;;;;;10102871;28;20141;-71
2022/12/12 16:15:31;;;;;;;48.38;31.95;;;;;;;;;;10092502;28;20054;-71
2022/12/12 16:20:28;;;;;;;47.90;31.25;;;;;;;;;;10086458;28;20050;-70
2022/12/12 16:25:27;;;;;;;52.13;32.28;;;;;;;;;;10099890;28;20046;-71
2022/12/12 16:30:24;;;;;;;46.97;33.67;;;;;;;;;;10095686;28;20073;-71
2022/12/12 16:35:22;;;;;;;50.38;32.75;;;;;;;;;;10087399;28;20058;-71
2022/12/12 16:40:19;;;;;;;54.25;34.08;;;;;;;;;;10102703;28;21402;-71
2022/12/12 16:45:16;;;;;;;54.97;34.47;;;;;;;;;;10090893;28;20042;-71
2022/12/12 16:50:12;;;;;;;48.95;33.63;;;;;;;;;;10107629;28;20047;-71
2022/12/12 16:55:20;;;;;;;49.55;33.30;;;;;;;;;;10095682;28;20574;-70
2022/12/12 17:00:17;;;;;;;52.15;33.63;;;;;;;;;;10100612;28;20133;-71
2022/12/12 17:05:19;;;;;;;52.75;34.33;;;;;;;;;;10089916;28;20050;-70
2022/12/12 17:10:16;;;;;;;57.72;36.35;;;;;;;;;;10087779;28;20047;-71
2022/12/12 17:15:18;;;;;;;57.83;35.95;;;;;;;;;;10087926;28;20548;-71
2022/12/12 17:20:14;;;;;;;54.97;35.92;;;;;;;;;;10093498;28;20051;-68
2022/12/12 17:25:12;;;;;;;50.25;35.03;;;;;;;;;;10088796;28;20039;-71
2022/12/12 17:30:09;;;;;;;48.50;34.40;;;;;;;;;;10084815;28;20130;-70
2022/12/12 17:35:06;;;;;;;52.30;34.67;;;;;;;;;;10092870;28;20138;-70
2022/12/12 17:40:03;;;;;;;51.17;35.47;;;;;;;;;;10087256;28;20047;-67
2022/12/12 17:44:59;;;;;;;52.65;34.58;;;;;;;;;;10101010;28;20504;-71
2022/12/12 17:49:55;;;;;;;52.17;34.42;;;;;;;;;;10095537;28;20146;-69
2022/12/12 17:54:52;;;;;;;58.65;36.22;;;;;;;;;;10095595;28;20520;-71
2022/12/12 18:00:08;;;;;;;53.47;34.50;;;;;;;;;;10096182;28;20101;-70
2022/12/12 18:05:08;;;;;;;51.95;33.92;;;;;;;;;;10091438;28;20050;-70
2022/12/12 18:10:04;;;;;;;56.35;37.35;;;;;;;;;;10091660;28;20078;-70
2022/12/12 18:15:00;;;;;;;56.92;35.42;;;;;;;;;;10092569;28;20061;-71
2022/12/12 18:19:57;;;;;;;54.30;35.95;;;;;;;;;;10095324;28;20129;-71
2022/12/12 18:24:53;;;;;;;54.92;36.88;;;;;;;;;;10097694;28;20057;-71
2022/12/12 18:29:49;;;;;;;56.85;35.13;;;;;;;;;;10095844;28;20699;-71
2022/12/12 18:34:45;;;;;;;55.17;35.60;;;;;;;;;;10098382;28;20054;-71
2022/12/12 18:39:42;;;;;;;55.30;34.45;;;;;;;;;;10091532;28;20145;-67
2022/12/12 18:44:38;;;;;;;56.20;35.83;;;;;;;;;;10091477;28;20040;-67
2022/12/12 18:49:35;;;;;;;57.33;35.65;;;;;;;;;;10093172;28;20058;-67
2022/12/12 18:54:31;;;;;;;59.85;37.85;;;;;;;;;;10095621;28;20496;-67
2022/12/12 18:59:27;;;;;;;61.55;35.47;;;;;;;;;;10096332;28;20500;-67
2022/12/12 19:04:23;;;;;;;50.03;33.63;;;;;;;;;;10107577;28;20039;-67
2022/12/12 19:09:20;;;;;;;56.92;35.03;;;;;;;;;;10108383;28;20046;-67
2022/12/12 19:14:17;;;;;;;55.85;35.88;;;;;;;;;;10109168;28;20134;-67
2022/12/12 19:19:14;;;;;;;54.97;35.10;;;;;;;;;;10097932;28;20117;-67
2022/12/12 19:24:13;;;;;;;56.60;37.53;;;;;;;;;;10109303;28;20058;-68
2022/12/12 19:29:11;;;;;;;61.00;36.67;;;;;;;;;;10109411;28;20478;-67
2022/12/12 19:34:09;;;;;;;58.78;37.90;;;;;;;;;;10108032;28;20062;-67
2022/12/12 19:39:06;;;;;;;61.63;38.35;;;;;;;;;;10107292;28;20047;-67
2022/12/12 19:44:03;;;;;;;57.58;38.40;;;;;;;;;;10102283;28;20046;-68
2022/12/12 19:49:01;;;;;;;60.33;38.45;;;;;;;;;;10102854;28;20122;-67
2022/12/12 19:53:58;;;;;;;61.03;36.30;;;;;;;;;;10102849;28;20058;-67
2022/12/12 19:58:55;;;;;;;64.53;41.33;;;;;;;;;;10088038;28;20138;-67
2022/12/12 20:03:53;;;;;;;70.53;42.00;;;;;;;;;;10088857;28;20132;-68
2022/12/12 20:08:51;;;;;;;73.63;46.92;;;;;;;;;;10089999;28;20045;-70
2022/12/12 20:13:49;;;;;;;77.47;45.90;;;;;;;;;;10098431;28;20470;-69
2022/12/12 20:18:46;;;;;;;80.13;48.80;;;;;;;;;;10093607;28;20556;-69
2022/12/12 20:23:43;;;;;;;86.20;48.15;;;;;;;;;;10086576;28;20046;-68
2022/12/12 20:28:43;;;;;;;76.90;47.20;;;;;;;;;;10084944;28;20047;-68
2022/12/12 20:33:41;;;;;;;75.20;45.95;;;;;;;;;;10093242;28;20054;-67
2022/12/12 20:38:37;;;;;;;81.47;50.65;;;;;;;;;;10103739;28;20047;-67
2022/12/12 20:43:33;;;;;;;80.50;48.33;;;;;;;;;;10103167;28;20668;-67
2022/12/12 20:48:30;;;;;;;82.38;47.80;;;;;;;;;;10108001;28;20046;-69
2022/12/12 20:53:26;;;;;;;88.00;49.33;;;;;;;;;;10100417;28;20475;-70
2022/12/12 20:58:27;;;;;;;84.57;48.67;;;;;;;;;;10106006;28;20162;-69
2022/12/12 21:03:23;;;;;;;79.30;47.08;;;;;;;;;;10097392;28;20043;-69
2022/12/12 21:08:20;;;;;;;88.57;51.75;;;;;;;;;;10106203;28;20050;-69
2022/12/12 21:13:16;;;;;;;85.82;48.17;;;;;;;;;;10107831;28;20070;-66
2022/12/12 21:18:12;;;;;;;83.72;49.28;;;;;;;;;;10095822;28;20085;-67
2022/12/12 21:23:09;;;;;;;77.05;45.90;;;;;;;;;;10107023;28;20147;-68
2022/12/12 21:28:05;;;;;;;87.53;48.03;;;;;;;;;;10103555;28;20509;-67
2022/12/12 21:33:01;;;;;;;88.65;50.65;;;;;;;;;;10099087;28;20049;-68
2022/12/12 21:37:57;;;;;;;81.38;47.90;;;;;;;;;;10099022;28;20047;-68
2022/12/12 21:42:54;;;;;;;85.57;49.78;;;;;;;;;;10108481;28;20051;-68
2022/12/12 21:47:50;;;;;;;82.25;49.83;;;;;;;;;;10100530;28;20130;-67
2022/12/12 21:53:32;;;;;;;91.07;50.78;;;;;;;;;;10109861;28;20051;-67
2022/12/12 21:58:03;;;;;;;86.95;51.28;;;;;;;;;;10106684;28;20129;-67
2022/12/12 22:02:59;;;;;;;79.07;48.88;;;;;;;;;;10111338;28;20474;-67
2022/12/12 22:07:56;;;;;;;85.45;48.42;;;;;;;;;;10099732;28;20137;-66
2022/12/12 22:12:52;;;;;;;82.78;46.60;;;;;;;;;;10110139;28;20055;-67
2022/12/12 22:17:54;;;;;;;83.50;48.85;;;;;;;;;;10109416;28;20071;-67
2022/12/12 22:22:50;;;;;;;84.70;48.25;;;;;;;;;;10113313;28;20078;-66
2022/12/12 22:27:46;;;;;;;79.72;45.95;;;;;;;;;;10102724;28;20520;-65
2022/12/12 22:32:43;;;;;;;77.97;45.05;;;;;;;;;;10110764;28;20057;-65
2022/12/12 22:37:39;;;;;;;82.75;46.45;;;;;;;;;;10111800;28;20059;-66
2022/12/12 22:42:35;;;;;;;81.28;46.25;;;;;;;;;;10108813;28;20139;-66
2022/12/12 22:47:31;;;;;;;74.50;42.97;;;;;;;;;;10099448;28;20043;-66
2022/12/12 22:52:27;;;;;;;74.72;42.45;;;;;;;;;;10118583;28;20125;-66
2022/12/12 22:57:24;;;;;;;80.43;42.15;;;;;;;;;;10102937;28;20512;-67
2022/12/12 23:02:20;;;;;;;73.90;42.00;;;;;;;;;;10106976;28;20486;-67
2022/12/12 23:07:20;;;;;;;67.72;41.88;;;;;;;;;;10102910;28;20125;-66
2022/12/12 23:12:18;;;;;;;63.20;39.00;;;;;;;;;;10107590;28;20039;-66
2022/12/12 23:17:14;;;;;;;65.63;39.60;;;;;;;;;;10103467;28;20040;-67
2022/12/12 23:22:10;;;;;;;68.68;41.47;;;;;;;;;;10109213;28;20049;-66
2022/12/12 23:27:07;;;;;;;79.82;45.83;;;;;;;;;;10105183;28;20042;-67
2022/12/12 23:32:03;;;;;;;72.25;42.92;;;;;;;;;;10102804;28;20046;-66
2022/12/12 23:36:59;;;;;;;66.07;41.75;;;;;;;;;;10113758;28;20054;-67
2022/12/12 23:41:56;;;;;;;72.78;42.72;;;;;;;;;;10114632;28;20138;-67
2022/12/12 23:46:52;;;;;;;67.88;40.38;;;;;;;;;;10110101;28;20142;-67
2022/12/12 23:51:50;;;;;;;71.40;41.55;;;;;;;;;;10106919;28;20047;-66
2022/12/12 23:56:46;;;;;;;71.20;43.92;;;;;;;;;;10097885;28;20420;-67
